createdAt,value
2024-01-28T00:01:19.612Z,11.90
2024-01-28T00:04:22.055Z,13.07
2024-01-28T00:07:24.152Z,12.30
2024-01-28T00:10:26.583Z,12.07
2024-01-28T00:13:29.777Z,13.70
2024-01-28T00:16:32.146Z,14.02
2024-01-28T00:19:34.638Z,12.48
2024-01-28T00:22:36.902Z,13.85
2024-01-28T00:25:39.001Z,12.93
2024-01-28T00:28:41.278Z,14.75
2024-01-28T00:31:43.443Z,12.88
2024-01-28T00:34:48.986Z,13.18
2024-01-28T00:37:56.332Z,12.40
2024-01-28T00:41:01.575Z,10.98
2024-01-28T00:44:03.758Z,10.45
2024-01-28T00:47:06.105Z,13.35
2024-01-28T00:50:08.686Z,13.02
2024-01-28T00:53:11.088Z,11.45
2024-01-28T00:56:17.800Z,11.15
2024-01-28T00:59:20.907Z,11.88
2024-01-28T01:02:23.214Z,10.73
2024-01-28T01:05:25.423Z,10.38
2024-01-28T01:08:27.713Z,10.32
2024-01-28T01:11:29.854Z,10.70
2024-01-28T01:14:36.806Z,11.52
2024-01-28T01:17:39.226Z,11.63
2024-01-28T01:20:41.441Z,9.68
2024-01-28T01:23:43.611Z,12.23
2024-01-28T01:26:45.858Z,11.05
2024-01-28T01:29:48.020Z,10.98
2024-01-28T01:32:50.208Z,10.27
2024-01-28T01:35:52.723Z,10.60
2024-01-28T01:38:54.933Z,10.43
2024-01-28T01:41:57.936Z,10.60
2024-01-28T01:45:00.252Z,10.77
2024-01-28T01:48:02.663Z,10.48
2024-01-28T01:51:08.100Z,9.80
2024-01-28T01:54:10.655Z,9.27
2024-01-28T01:57:13.644Z,11.10
2024-01-28T02:00:16.841Z,10.00
2024-01-28T02:03:19.259Z,10.23
2024-01-28T02:06:21.542Z,10.25
2024-01-28T02:09:24.175Z,10.30
2024-01-28T02:12:26.805Z,9.57
2024-01-28T02:15:29.179Z,10.77
2024-01-28T02:18:31.634Z,10.27
2024-01-28T02:21:33.968Z,10.82
2024-01-28T02:24:36.131Z,12.77
2024-01-28T02:27:40.725Z,10.02
2024-01-28T02:30:43.389Z,13.10
2024-01-28T02:33:45.813Z,12.02
2024-01-28T02:36:48.139Z,12.82
2024-01-28T02:39:50.338Z,11.75
2024-01-28T02:42:52.603Z,12.02
2024-01-28T02:45:54.880Z,10.68
2024-01-28T02:48:57.766Z,11.43
2024-01-28T02:52:00.019Z,11.88
2024-01-28T02:55:02.146Z,9.38
2024-01-28T02:58:04.705Z,10.90
2024-01-28T03:01:07.263Z,8.27
2024-01-28T03:04:09.595Z,7.28
2024-01-28T03:07:11.757Z,7.13
2024-01-28T03:10:14.037Z,7.13
2024-01-28T03:13:16.344Z,6.60
2024-01-28T03:16:19.006Z,7.45
2024-01-28T03:19:21.309Z,7.43
2024-01-28T03:22:23.604Z,7.35
2024-01-28T03:25:25.665Z,6.63
2024-01-28T03:28:27.785Z,6.15
2024-01-28T03:31:30.029Z,6.70
2024-01-28T03:34:32.466Z,7.10
2024-01-28T03:37:34.737Z,7.78
2024-01-28T03:40:36.828Z,7.60
2024-01-28T03:43:39.860Z,7.28
2024-01-28T03:46:42.093Z,7.20
2024-01-28T03:49:44.281Z,7.20
2024-01-28T03:52:47.145Z,7.85
2024-01-28T03:55:49.234Z,7.07
2024-01-28T03:58:51.482Z,7.43
2024-01-28T04:01:53.691Z,7.97
2024-01-28T04:04:55.894Z,6.50
2024-01-28T04:07:58.111Z,7.43
2024-01-28T04:11:00.249Z,7.75
2024-01-28T04:14:02.338Z,8.70
2024-01-28T04:17:04.617Z,8.15
2024-01-28T04:20:07.930Z,7.50
2024-01-28T04:23:10.049Z,6.60
2024-01-28T04:26:12.375Z,7.45
2024-01-28T04:29:14.711Z,6.80
2024-01-28T04:32:16.844Z,7.38
2024-01-28T04:35:19.068Z,6.72
2024-01-28T04:38:21.261Z,8.55
2024-01-28T04:41:23.442Z,7.82
2024-01-28T04:44:25.613Z,8.60
2024-01-28T04:47:27.876Z,7.68
2024-01-28T04:50:30.014Z,8.07
2024-01-28T04:53:32.190Z,7.57
2024-01-28T04:56:34.356Z,7.78
2024-01-28T04:59:36.647Z,7.25
2024-01-28T05:02:39.782Z,9.52
2024-01-28T05:05:42.657Z,9.23
2024-01-28T05:08:44.859Z,6.95
2024-01-28T05:11:47.098Z,4.78
2024-01-28T05:14:49.380Z,4.63
2024-01-28T05:17:51.681Z,3.80
2024-01-28T05:20:53.816Z,7.55
2024-01-28T05:23:56.060Z,7.43
2024-01-28T05:26:58.406Z,7.88
2024-01-28T05:30:00.568Z,8.02
2024-01-28T05:33:02.776Z,8.80
2024-01-28T05:36:14.860Z,9.27
2024-01-28T05:39:18.313Z,8.98
2024-01-28T05:42:20.557Z,8.23
2024-01-28T05:45:22.738Z,9.55
2024-01-28T05:48:25.011Z,8.85
2024-01-28T05:51:28.534Z,8.43
2024-01-28T05:54:31.937Z,8.85
2024-01-28T05:57:34.505Z,9.65
2024-01-28T06:00:36.744Z,9.55
2024-01-28T06:03:39.077Z,10.60
2024-01-28T06:06:43.804Z,8.52
2024-01-28T06:09:46.288Z,7.72
2024-01-28T06:12:48.547Z,7.57
2024-01-28T06:15:53.127Z,7.72
2024-01-28T06:18:57.769Z,7.05
2024-01-28T06:22:03.712Z,8.18
2024-01-28T06:25:08.641Z,7.90
2024-01-28T06:28:10.904Z,8.57
2024-01-28T06:31:14.621Z,9.10
2024-01-28T06:34:17.235Z,8.52
2024-01-28T06:37:19.834Z,9.43
2024-01-28T06:40:22.028Z,8.75
2024-01-28T06:43:26.871Z,8.35
2024-01-28T06:46:29.006Z,8.55
2024-01-28T06:49:31.363Z,9.35
2024-01-28T06:52:33.565Z,10.13
2024-01-28T06:55:36.153Z,10.50
2024-01-28T06:58:38.385Z,9.23
2024-01-28T07:01:41.051Z,9.55
2024-01-28T07:04:43.323Z,8.75
2024-01-28T07:07:46.188Z,9.63
2024-01-28T07:10:48.514Z,8.88
2024-01-28T07:13:50.754Z,8.88
2024-01-28T07:16:53.067Z,7.50
2024-01-28T07:19:55.440Z,8.35
2024-01-28T07:22:57.772Z,7.82
2024-01-28T07:25:59.863Z,9.43
2024-01-28T07:29:02.020Z,8.05
2024-01-28T07:32:05.223Z,11.38
2024-01-28T07:35:08.313Z,9.75
2024-01-28T07:38:10.666Z,11.13
2024-01-28T07:41:15.976Z,9.88
2024-01-28T07:44:18.122Z,9.38
2024-01-28T07:47:20.565Z,9.43
2024-01-28T07:50:22.888Z,11.43
2024-01-28T07:53:24.952Z,11.10
2024-01-28T07:56:27.860Z,11.02
2024-01-28T07:59:30.060Z,10.38
2024-01-28T08:02:32.681Z,12.30
2024-01-28T08:05:34.910Z,12.73
2024-01-28T08:08:37.091Z,14.00
2024-01-28T08:11:39.758Z,12.23
2024-01-28T08:14:42.048Z,12.23
2024-01-28T08:17:46.061Z,12.82
2024-01-28T08:20:48.285Z,10.60
2024-01-28T08:23:50.279Z,11.73
2024-01-28T08:26:52.493Z,11.57
2024-01-28T08:29:54.650Z,13.07
2024-01-28T08:32:56.837Z,11.82
2024-01-28T08:35:59.255Z,10.77
2024-01-28T08:39:01.879Z,10.23
2024-01-28T08:42:04.040Z,10.98
2024-01-28T08:45:06.589Z,10.93
2024-01-28T08:48:11.557Z,12.18
2024-01-28T08:51:13.948Z,11.85
2024-01-28T08:54:16.219Z,12.68
2024-01-28T08:57:20.120Z,12.07
2024-01-28T09:00:22.680Z,11.43
2024-01-28T09:03:25.167Z,11.63
2024-01-28T09:06:27.614Z,11.77
2024-01-28T09:09:30.267Z,9.23
2024-01-28T09:12:32.388Z,12.85
2024-01-28T09:15:34.603Z,9.45
2024-01-28T09:18:36.814Z,12.45
2024-01-28T09:21:39.004Z,11.13
2024-01-28T09:24:41.503Z,9.63
2024-01-28T09:27:49.508Z,10.68
2024-01-28T09:30:52.245Z,10.15
2024-01-28T09:33:54.582Z,10.15
2024-01-28T09:36:57.179Z,11.85
2024-01-28T09:40:00.412Z,10.13
2024-01-28T09:43:41.126Z,3.78
2024-01-28T09:49:20.515Z,8.20
2024-01-28T09:52:22.923Z,6.47
2024-01-28T09:55:25.012Z,8.05
2024-01-28T09:58:27.367Z,10.88
2024-01-28T10:01:32.383Z,10.90
2024-01-28T10:04:36.337Z,10.77
2024-01-28T10:08:05.720Z,10.75
2024-01-28T10:11:10.826Z,7.63
2024-01-28T10:14:13.994Z,4.22
2024-01-28T10:17:16.159Z,5.25
2024-01-28T10:20:23.859Z,5.70
2024-01-28T10:23:26.058Z,4.72
2024-01-28T10:26:28.202Z,6.13
2024-01-28T10:29:30.283Z,8.70
2024-01-28T10:32:32.497Z,7.78
2024-01-28T10:35:34.898Z,6.60
2024-01-28T10:38:43.861Z,6.25
2024-01-28T10:41:51.771Z,5.43
2024-01-28T10:44:59.784Z,6.68
2024-01-28T10:48:11.567Z,3.15
2024-01-28T10:51:16.386Z,4.05
2024-01-28T10:54:18.725Z,6.07
2024-01-28T10:57:22.754Z,7.45
2024-01-28T11:00:26.350Z,5.05
2024-01-28T11:03:29.107Z,11.95
2024-01-28T11:06:31.573Z,11.23
2024-01-28T11:09:34.134Z,12.18
2024-01-28T11:20:15.013Z,9.82
2024-01-28T11:23:17.950Z,9.93
2024-01-28T11:26:20.478Z,11.68
2024-01-28T11:29:22.673Z,12.60
2024-01-28T11:32:35.010Z,11.35
2024-01-28T11:35:37.547Z,11.45
2024-01-28T11:38:44.425Z,13.35
2024-01-28T11:41:46.779Z,11.63
2024-01-28T11:44:49.825Z,11.05
2024-01-28T11:47:52.640Z,10.93
2024-01-28T11:50:54.937Z,10.82
2024-01-28T11:53:57.096Z,11.70
2024-01-28T11:57:01.521Z,12.23
2024-01-28T12:00:09.520Z,11.45
2024-01-28T12:03:11.910Z,12.95
2024-01-28T12:06:15.423Z,9.68
2024-01-28T12:09:17.646Z,9.98
2024-01-28T12:12:19.867Z,9.50
2024-01-28T12:15:22.310Z,8.57
2024-01-28T12:18:24.755Z,9.13
2024-01-28T12:21:29.089Z,9.35
2024-01-28T12:24:32.723Z,8.50
2024-01-28T12:27:34.863Z,9.23
2024-01-28T12:30:39.060Z,9.27
2024-01-28T12:33:41.452Z,9.65
2024-01-28T12:36:43.946Z,10.50
2024-01-28T12:39:46.330Z,10.23
2024-01-28T12:42:48.715Z,9.45
2024-01-28T12:45:52.352Z,8.27
2024-01-28T12:48:57.288Z,9.52
2024-01-28T12:51:59.731Z,10.35
2024-01-28T12:55:02.627Z,12.50
2024-01-28T13:05:15.813Z,11.43
2024-01-28T13:08:18.268Z,9.07
2024-01-28T13:11:20.491Z,10.43
2024-01-28T13:14:22.708Z,10.50
2024-01-28T13:17:26.050Z,10.98
2024-01-28T13:20:28.417Z,11.30
2024-01-28T13:23:30.708Z,11.63
2024-01-28T13:26:33.211Z,13.05
2024-01-28T13:29:39.379Z,7.13
2024-01-28T13:32:41.776Z,8.35
2024-01-28T13:35:44.011Z,7.75
2024-01-28T13:38:46.326Z,6.10
2024-01-28T13:41:48.519Z,8.65
2024-01-28T13:44:51.533Z,7.88
2024-01-28T13:47:53.848Z,7.00
2024-01-28T13:50:56.269Z,10.25
2024-01-28T13:53:58.531Z,6.75
2024-01-28T13:57:01.144Z,5.32
2024-01-28T14:00:04.433Z,4.22
2024-01-28T14:03:07.466Z,6.72
2024-01-28T14:06:09.784Z,7.63
2024-01-28T14:09:12.658Z,4.70
2024-01-28T14:12:15.182Z,4.43
2024-01-28T14:15:17.497Z,5.45
2024-01-28T14:18:19.975Z,6.60
2024-01-28T14:21:26.622Z,7.68
2024-01-28T14:24:28.897Z,9.10
2024-01-28T14:27:31.119Z,9.77
2024-01-28T14:30:33.380Z,10.35
2024-01-28T14:33:35.653Z,9.55
2024-01-28T14:36:38.089Z,10.43
2024-01-28T14:39:40.394Z,9.00
2024-01-28T14:42:42.772Z,10.38
2024-01-28T14:45:46.712Z,9.65
2024-01-28T14:48:49.460Z,9.65
2024-01-28T14:51:52.423Z,10.10
2024-01-28T14:54:54.701Z,9.02
2024-01-28T14:57:57.123Z,9.57
2024-01-28T15:00:59.290Z,10.70
2024-01-28T15:04:01.536Z,9.82
2024-01-28T15:07:04.457Z,9.07
2024-01-28T15:10:07.943Z,9.57
2024-01-28T15:13:10.303Z,9.90
2024-01-28T15:16:12.711Z,9.27
2024-01-28T15:19:15.078Z,9.18
2024-01-28T15:22:17.419Z,7.95
2024-01-28T15:25:20.216Z,9.07
2024-01-28T15:28:25.533Z,9.13
2024-01-28T15:31:31.340Z,9.63
2024-01-28T15:34:33.459Z,9.05
2024-01-28T15:37:35.981Z,9.98
2024-01-28T15:40:38.143Z,10.50
2024-01-28T15:43:40.226Z,9.23
2024-01-28T15:46:42.520Z,10.77
2024-01-28T15:49:45.265Z,11.25
2024-01-28T15:52:47.582Z,9.57
2024-01-28T15:55:49.859Z,10.60
2024-01-28T15:58:52.226Z,9.10
2024-01-28T16:01:54.395Z,8.02
2024-01-28T16:04:56.647Z,9.10
2024-01-28T16:07:59.411Z,10.30
2024-01-28T16:11:01.570Z,10.95
2024-01-28T16:14:04.411Z,10.18
2024-01-28T16:17:06.873Z,7.80
2024-01-28T16:20:10.740Z,9.48
2024-01-28T16:23:13.421Z,5.72
2024-01-28T16:26:15.746Z,5.65
2024-01-28T16:29:18.025Z,4.20
2024-01-28T16:32:20.062Z,4.72
2024-01-28T16:35:22.845Z,5.97
2024-01-28T16:38:25.062Z,5.25
2024-01-28T16:41:28.633Z,6.93
2024-01-28T16:44:30.846Z,9.10
2024-01-28T16:47:33.529Z,9.25
2024-01-28T16:50:37.226Z,9.35
2024-01-28T16:53:39.385Z,10.15
2024-01-28T16:56:41.548Z,8.65
2024-01-28T16:59:44.148Z,8.85
2024-01-28T17:02:46.288Z,8.23
2024-01-28T17:05:48.761Z,7.95
2024-01-28T17:08:50.897Z,9.70
2024-01-28T17:11:53.400Z,8.73
2024-01-28T17:14:55.707Z,8.75
2024-01-28T17:17:58.121Z,8.82
2024-01-28T17:21:05.799Z,9.60
2024-01-28T17:24:08.672Z,10.25
2024-01-28T17:27:10.847Z,8.32
2024-01-28T17:30:13.297Z,8.55
2024-01-28T17:33:15.854Z,8.55
2024-01-28T17:36:18.352Z,10.75
2024-01-28T17:39:20.859Z,9.40
2024-01-28T17:42:27.683Z,11.98
2024-01-28T17:45:31.485Z,12.87
2024-01-28T17:48:36.494Z,13.68
2024-01-28T17:51:39.714Z,13.90
2024-01-28T17:54:42.404Z,14.13
2024-01-28T17:57:44.713Z,12.57
2024-01-28T18:00:47.438Z,11.43
2024-01-28T18:03:49.927Z,11.88
2024-01-28T18:06:52.685Z,12.02
2024-01-28T18:09:55.054Z,11.68
2024-01-28T18:12:57.555Z,11.63
2024-01-28T18:16:00.108Z,11.73
2024-01-28T18:19:02.491Z,10.23
2024-01-28T18:22:05.226Z,11.45
2024-01-28T18:25:07.764Z,11.55
2024-01-28T18:28:11.165Z,10.93
2024-01-28T18:31:13.251Z,12.57
2024-01-28T18:34:15.500Z,12.23
2024-01-28T18:37:17.833Z,11.82
2024-01-28T18:40:20.291Z,11.75
2024-01-28T18:43:22.656Z,10.07
2024-01-28T18:46:24.813Z,12.80
2024-01-28T18:49:27.159Z,11.52
2024-01-28T18:52:29.608Z,12.32
2024-01-28T18:55:32.333Z,11.93
2024-01-28T18:58:34.395Z,12.90
2024-01-28T19:01:38.141Z,12.07
2024-01-28T19:04:41.128Z,12.77
2024-01-28T19:07:43.647Z,15.20
2024-01-28T19:10:45.829Z,12.27
2024-01-28T19:13:49.470Z,15.25
2024-01-28T19:16:51.729Z,13.65
2024-01-28T19:19:53.940Z,12.48
2024-01-28T19:22:57.098Z,12.32
2024-01-28T19:25:59.791Z,11.52
2024-01-28T19:29:02.631Z,14.73
2024-01-28T19:32:05.751Z,14.15
2024-01-28T19:35:08.599Z,12.30
2024-01-28T19:38:10.920Z,14.68
2024-01-28T19:41:14.720Z,12.73
2024-01-28T19:44:17.064Z,13.38
2024-01-28T19:47:19.220Z,13.07
2024-01-28T19:50:21.376Z,11.85
2024-01-28T19:53:23.712Z,12.82
2024-01-28T19:56:25.884Z,13.05
2024-01-28T19:59:28.220Z,12.65
2024-01-28T20:02:30.428Z,12.38
2024-01-28T20:05:32.738Z,11.85
2024-01-28T20:08:34.926Z,11.38
2024-01-28T20:11:37.247Z,12.63
2024-01-28T20:14:39.578Z,11.65
2024-01-28T20:17:44.296Z,11.32
2024-01-28T20:20:47.016Z,11.32
2024-01-28T20:23:50.147Z,10.52
2024-01-28T20:26:52.783Z,11.80
2024-01-28T20:29:54.938Z,10.07
2024-01-28T20:32:57.174Z,12.93
2024-01-28T20:36:00.629Z,11.57
2024-01-28T20:39:06.141Z,11.60
2024-01-28T20:42:10.883Z,12.02
2024-01-28T20:45:13.946Z,10.95
2024-01-28T20:48:16.466Z,11.98
2024-01-28T20:51:19.920Z,12.18
2024-01-28T20:54:22.296Z,10.55
2024-01-28T20:57:24.520Z,11.10
2024-01-28T21:00:26.779Z,12.68
2024-01-28T21:03:29.476Z,11.98
2024-01-28T21:06:31.673Z,11.65
2024-01-28T21:09:34.055Z,13.13
2024-01-28T21:12:36.703Z,11.63
2024-01-28T21:15:39.047Z,13.90
2024-01-28T21:18:41.202Z,12.02
2024-01-28T21:21:44.071Z,11.07
2024-01-28T21:24:47.238Z,10.63
2024-01-28T21:27:51.957Z,10.52
2024-01-28T21:30:56.007Z,11.55
2024-01-28T21:33:58.876Z,12.00
2024-01-28T21:37:01.072Z,9.93
2024-01-28T21:40:04.971Z,11.52
2024-01-28T21:43:07.406Z,12.77
2024-01-28T21:46:09.998Z,10.82
2024-01-28T21:49:12.582Z,10.27
2024-01-28T21:52:14.794Z,11.23
2024-01-28T21:55:17.117Z,10.82
2024-01-28T21:58:19.507Z,13.10
2024-01-28T22:01:22.066Z,12.35
2024-01-28T22:04:24.364Z,11.40
2024-01-28T22:07:26.593Z,12.18
2024-01-28T22:10:28.918Z,10.77
2024-01-28T22:13:31.357Z,11.43
2024-01-28T22:16:33.675Z,11.00
2024-01-28T22:19:35.915Z,10.27
2024-01-28T22:22:38.114Z,13.25
2024-01-28T22:25:40.249Z,11.32
2024-01-28T22:28:42.416Z,11.27
2024-01-28T22:31:44.883Z,13.07
2024-01-28T22:34:47.356Z,10.70
2024-01-28T22:37:49.641Z,12.25
2024-01-28T22:40:52.021Z,12.40
2024-01-28T22:43:54.502Z,11.23
2024-01-28T22:46:56.701Z,12.23
2024-01-28T22:50:00.276Z,11.88
2024-01-28T22:53:02.507Z,11.60
2024-01-28T22:56:05.002Z,11.75
2024-01-28T22:59:07.385Z,11.07
2024-01-28T23:02:11.155Z,11.65
2024-01-28T23:05:13.444Z,10.32
2024-01-28T23:08:15.729Z,12.18
2024-01-28T23:11:18.062Z,11.15
2024-01-28T23:14:20.253Z,10.95
2024-01-28T23:17:22.381Z,10.23
2024-01-28T23:20:24.763Z,10.15
2024-01-28T23:23:27.221Z,10.07
2024-01-28T23:26:29.607Z,9.55
2024-01-28T23:29:32.213Z,10.30
2024-01-28T23:32:35.157Z,10.25
2024-01-28T23:35:37.657Z,10.80
2024-01-28T23:38:42.122Z,11.40
2024-01-28T23:41:45.050Z,11.10
2024-01-28T23:44:47.311Z,10.45
2024-01-28T23:47:49.860Z,9.43
2024-01-28T23:50:52.795Z,9.93
2024-01-28T23:53:55.569Z,11.65
2024-01-28T23:56:57.646Z,10.50
2024-01-28T23:59:59.891Z,11.25
